sensor_id;sensor_type;location;lat;lon;timestamp;P1;durP1;ratioP1;P2;durP2;ratioP2
43670;SDS011;29267;50.906;7.248;2022-10-15T00:00:38;13.10;;;7.38;;
43670;SDS011;29267;50.906;7.248;2022-10-15T00:03:04;11.93;;;7.90;;
43670;SDS011;29267;50.906;7.248;2022-10-15T00:05:30;11.88;;;8.32;;
43670;SDS011;29267;50.906;7.248;2022-10-15T00:07:56;10.63;;;7.60;;
43670;SDS011;29267;50.906;7.248;2022-10-15T00:10:21;13.35;;;7.13;;
43670;SDS011;29267;50.906;7.248;2022-10-15T00:12:47;27.23;;;9.73;;
43670;SDS011;29267;50.906;7.248;2022-10-15T00:15:13;14.75;;;8.50;;
43670;SDS011;29267;50.906;7.248;2022-10-15T00:17:40;12.88;;;8.68;;
43670;SDS011;29267;50.906;7.248;2022-10-15T00:20:07;17.38;;;9.30;;
43670;SDS011;29267;50.906;7.248;2022-10-15T00:22:34;18.38;;;9.10;;
43670;SDS011;29267;50.906;7.248;2022-10-15T00:25:00;15.02;;;10.00;;
43670;SDS011;29267;50.906;7.248;2022-10-15T00:27:26;15.90;;;9.70;;
43670;SDS011;29267;50.906;7.248;2022-10-15T00:29:51;20.70;;;9.63;;
43670;SDS011;29267;50.906;7.248;2022-10-15T00:32:17;15.95;;;8.98;;
43670;SDS011;29267;50.906;7.248;2022-10-15T00:34:42;16.80;;;10.20;;
43670;SDS011;29267;50.906;7.248;2022-10-15T00:37:08;22.30;;;10.88;;
43670;SDS011;29267;50.906;7.248;2022-10-15T00:39:34;12.80;;;9.23;;
43670;SDS011;29267;50.906;7.248;2022-10-15T00:42:00;23.13;;;10.02;;
43670;SDS011;29267;50.906;7.248;2022-10-15T00:47:11;15.65;;;10.50;;
43670;SDS011;29267;50.906;7.248;2022-10-15T00:49:50;16.45;;;11.00;;
43670;SDS011;29267;50.906;7.248;2022-10-15T00:55:24;25.50;;;10.68;;
43670;SDS011;29267;50.906;7.248;2022-10-15T00:57:54;19.13;;;9.20;;
43670;SDS011;29267;50.906;7.248;2022-10-15T01:00:21;18.60;;;10.07;;
43670;SDS011;29267;50.906;7.248;2022-10-15T01:02:47;16.85;;;9.65;;
43670;SDS011;29267;50.906;7.248;2022-10-15T01:05:14;14.48;;;8.38;;
43670;SDS011;29267;50.906;7.248;2022-10-15T01:07:41;12.25;;;8.63;;
43670;SDS011;29267;50.906;7.248;2022-10-15T01:10:06;11.55;;;7.47;;
43670;SDS011;29267;50.906;7.248;2022-10-15T01:15:42;12.25;;;7.72;;
43670;SDS011;29267;50.906;7.248;2022-10-15T01:18:40;12.05;;;8.38;;
43670;SDS011;29267;50.906;7.248;2022-10-15T01:21:24;15.43;;;7.57;;
43670;SDS011;29267;50.906;7.248;2022-10-15T01:27:40;11.20;;;7.30;;
43670;SDS011;29267;50.906;7.248;2022-10-15T01:32:29;10.25;;;6.93;;
43670;SDS011;29267;50.906;7.248;2022-10-15T01:35:16;11.38;;;7.22;;
43670;SDS011;29267;50.906;7.248;2022-10-15T01:37:54;9.40;;;6.47;;
43670;SDS011;29267;50.906;7.248;2022-10-15T01:40:31;16.55;;;7.88;;
43670;SDS011;29267;50.906;7.248;2022-10-15T01:43:04;8.45;;;5.78;;
43670;SDS011;29267;50.906;7.248;2022-10-15T01:45:36;11.68;;;6.72;;
43670;SDS011;29267;50.906;7.248;2022-10-15T01:48:08;11.73;;;5.97;;
43670;SDS011;29267;50.906;7.248;2022-10-15T01:50:36;9.32;;;5.78;;
43670;SDS011;29267;50.906;7.248;2022-10-15T01:53:10;9.80;;;6.22;;
43670;SDS011;29267;50.906;7.248;2022-10-15T01:55:40;8.13;;;5.47;;
43670;SDS011;29267;50.906;7.248;2022-10-15T01:58:09;8.23;;;5.50;;
43670;SDS011;29267;50.906;7.248;2022-10-15T02:00:38;11.50;;;5.90;;
43670;SDS011;29267;50.906;7.248;2022-10-15T02:03:05;8.65;;;5.90;;
43670;SDS011;29267;50.906;7.248;2022-10-15T02:05:32;8.30;;;5.70;;
43670;SDS011;29267;50.906;7.248;2022-10-15T02:08:08;9.95;;;6.80;;
43670;SDS011;29267;50.906;7.248;2022-10-15T02:18:49;7.03;;;5.07;;
43670;SDS011;29267;50.906;7.248;2022-10-15T02:21:47;8.90;;;5.65;;
43670;SDS011;29267;50.906;7.248;2022-10-15T02:24:24;8.52;;;5.95;;
43670;SDS011;29267;50.906;7.248;2022-10-15T02:26:55;11.18;;;5.75;;
43670;SDS011;29267;50.906;7.248;2022-10-15T02:29:22;9.15;;;5.80;;
43670;SDS011;29267;50.906;7.248;2022-10-15T02:31:52;11.27;;;6.55;;
43670;SDS011;29267;50.906;7.248;2022-10-15T02:34:20;10.65;;;6.43;;
43670;SDS011;29267;50.906;7.248;2022-10-15T02:36:49;9.80;;;6.50;;
43670;SDS011;29267;50.906;7.248;2022-10-15T02:39:20;8.43;;;6.22;;
43670;SDS011;29267;50.906;7.248;2022-10-15T02:41:50;15.73;;;7.68;;
43670;SDS011;29267;50.906;7.248;2022-10-15T02:44:17;11.85;;;7.45;;
43670;SDS011;29267;50.906;7.248;2022-10-15T02:46:43;14.30;;;8.98;;
43670;SDS011;29267;50.906;7.248;2022-10-15T02:49:09;10.93;;;8.25;;
43670;SDS011;29267;50.906;7.248;2022-10-15T02:51:35;17.42;;;9.65;;
43670;SDS011;29267;50.906;7.248;2022-10-15T02:54:02;14.50;;;9.18;;
43670;SDS011;29267;50.906;7.248;2022-10-15T02:56:29;14.13;;;8.75;;
43670;SDS011;29267;50.906;7.248;2022-10-15T02:58:54;15.32;;;9.63;;
43670;SDS011;29267;50.906;7.248;2022-10-15T03:01:20;15.30;;;8.75;;
43670;SDS011;29267;50.906;7.248;2022-10-15T03:03:46;14.60;;;9.93;;
43670;SDS011;29267;50.906;7.248;2022-10-15T03:06:12;16.10;;;9.27;;
43670;SDS011;29267;50.906;7.248;2022-10-15T03:08:38;16.25;;;9.77;;
43670;SDS011;29267;50.906;7.248;2022-10-15T03:11:06;18.77;;;10.23;;
43670;SDS011;29267;50.906;7.248;2022-10-15T03:13:34;15.20;;;9.20;;
43670;SDS011;29267;50.906;7.248;2022-10-15T03:16:02;21.27;;;10.32;;
43670;SDS011;29267;50.906;7.248;2022-10-15T03:18:29;16.80;;;9.45;;
43670;SDS011;29267;50.906;7.248;2022-10-15T03:20:55;20.42;;;11.43;;
43670;SDS011;29267;50.906;7.248;2022-10-15T03:23:22;19.23;;;10.75;;
43670;SDS011;29267;50.906;7.248;2022-10-15T03:25:48;23.23;;;10.98;;
43670;SDS011;29267;50.906;7.248;2022-10-15T03:28:14;18.25;;;10.70;;
43670;SDS011;29267;50.906;7.248;2022-10-15T03:30:41;21.10;;;10.85;;
43670;SDS011;29267;50.906;7.248;2022-10-15T03:33:07;25.48;;;11.02;;
43670;SDS011;29267;50.906;7.248;2022-10-15T03:35:33;23.60;;;12.27;;
43670;SDS011;29267;50.906;7.248;2022-10-15T03:37:58;24.27;;;11.77;;
43670;SDS011;29267;50.906;7.248;2022-10-15T03:40:24;28.55;;;12.50;;
43670;SDS011;29267;50.906;7.248;2022-10-15T03:42:50;27.13;;;12.50;;
43670;SDS011;29267;50.906;7.248;2022-10-15T03:45:16;24.85;;;11.73;;
43670;SDS011;29267;50.906;7.248;2022-10-15T03:47:42;24.17;;;12.30;;
43670;SDS011;29267;50.906;7.248;2022-10-15T03:50:08;22.00;;;11.65;;
43670;SDS011;29267;50.906;7.248;2022-10-15T03:52:35;28.45;;;10.93;;
43670;SDS011;29267;50.906;7.248;2022-10-15T03:55:01;40.78;;;10.52;;
43670;SDS011;29267;50.906;7.248;2022-10-15T03:57:26;37.78;;;9.80;;
43670;SDS011;29267;50.906;7.248;2022-10-15T03:59:52;14.15;;;9.00;;
43670;SDS011;29267;50.906;7.248;2022-10-15T04:02:17;121.97;;;9.43;;
43670;SDS011;29267;50.906;7.248;2022-10-15T04:04:43;63.72;;;7.63;;
43670;SDS011;29267;50.906;7.248;2022-10-15T04:07:08;39.80;;;7.65;;
43670;SDS011;29267;50.906;7.248;2022-10-15T04:09:34;71.78;;;7.60;;
43670;SDS011;29267;50.906;7.248;2022-10-15T04:12:00;45.13;;;7.72;;
43670;SDS011;29267;50.906;7.248;2022-10-15T04:14:25;74.97;;;6.70;;
43670;SDS011;29267;50.906;7.248;2022-10-15T04:16:51;19.17;;;5.85;;
43670;SDS011;29267;50.906;7.248;2022-10-15T04:19:16;53.17;;;6.43;;
43670;SDS011;29267;50.906;7.248;2022-10-15T04:21:42;18.98;;;5.90;;
43670;SDS011;29267;50.906;7.248;2022-10-15T04:24:08;27.65;;;6.55;;
43670;SDS011;29267;50.906;7.248;2022-10-15T04:26:33;30.00;;;6.50;;
43670;SDS011;29267;50.906;7.248;2022-10-15T04:28:59;43.55;;;7.72;;
43670;SDS011;29267;50.906;7.248;2022-10-15T04:31:24;39.38;;;8.35;;
43670;SDS011;29267;50.906;7.248;2022-10-15T04:33:50;70.30;;;8.95;;
43670;SDS011;29267;50.906;7.248;2022-10-15T04:36:16;19.92;;;7.65;;
43670;SDS011;29267;50.906;7.248;2022-10-15T04:38:41;31.83;;;8.32;;
43670;SDS011;29267;50.906;7.248;2022-10-15T04:41:08;17.83;;;7.95;;
43670;SDS011;29267;50.906;7.248;2022-10-15T04:43:35;22.13;;;8.80;;
43670;SDS011;29267;50.906;7.248;2022-10-15T04:46:02;16.60;;;8.65;;
43670;SDS011;29267;50.906;7.248;2022-10-15T04:48:30;36.65;;;9.68;;
43670;SDS011;29267;50.906;7.248;2022-10-15T04:51:06;25.42;;;10.15;;
43670;SDS011;29267;50.906;7.248;2022-10-15T04:53:36;19.00;;;8.77;;
43670;SDS011;29267;50.906;7.248;2022-10-15T04:56:06;19.38;;;10.45;;
43670;SDS011;29267;50.906;7.248;2022-10-15T04:58:34;16.45;;;8.80;;
43670;SDS011;29267;50.906;7.248;2022-10-15T05:01:01;19.13;;;9.70;;
43670;SDS011;29267;50.906;7.248;2022-10-15T05:03:28;17.15;;;9.77;;
43670;SDS011;29267;50.906;7.248;2022-10-15T05:05:58;17.17;;;9.73;;
43670;SDS011;29267;50.906;7.248;2022-10-15T05:08:25;18.45;;;9.88;;
43670;SDS011;29267;50.906;7.248;2022-10-15T05:10:51;18.73;;;10.13;;
43670;SDS011;29267;50.906;7.248;2022-10-15T05:13:17;20.80;;;11.68;;
43670;SDS011;29267;50.906;7.248;2022-10-15T05:15:43;17.83;;;10.40;;
43670;SDS011;29267;50.906;7.248;2022-10-15T05:18:08;16.23;;;9.30;;
43670;SDS011;29267;50.906;7.248;2022-10-15T05:20:34;23.05;;;11.23;;
43670;SDS011;29267;50.906;7.248;2022-10-15T05:22:59;18.42;;;9.48;;
43670;SDS011;29267;50.906;7.248;2022-10-15T05:25:25;38.50;;;9.20;;
43670;SDS011;29267;50.906;7.248;2022-10-15T05:27:50;27.92;;;9.27;;
43670;SDS011;29267;50.906;7.248;2022-10-15T05:30:16;56.80;;;11.95;;
43670;SDS011;29267;50.906;7.248;2022-10-15T05:32:41;59.83;;;10.98;;
43670;SDS011;29267;50.906;7.248;2022-10-15T05:35:07;18.27;;;10.80;;
43670;SDS011;29267;50.906;7.248;2022-10-15T05:37:33;17.40;;;10.80;;
43670;SDS011;29267;50.906;7.248;2022-10-15T05:39:58;19.25;;;10.85;;
43670;SDS011;29267;50.906;7.248;2022-10-15T05:42:24;14.63;;;9.98;;
43670;SDS011;29267;50.906;7.248;2022-10-15T05:44:50;20.05;;;10.43;;
43670;SDS011;29267;50.906;7.248;2022-10-15T05:47:15;14.60;;;8.82;;
43670;SDS011;29267;50.906;7.248;2022-10-15T05:49:41;17.45;;;9.20;;
43670;SDS011;29267;50.906;7.248;2022-10-15T05:52:06;15.27;;;9.48;;
43670;SDS011;29267;50.906;7.248;2022-10-15T05:54:32;13.98;;;8.90;;
43670;SDS011;29267;50.906;7.248;2022-10-15T05:56:57;14.80;;;8.05;;
43670;SDS011;29267;50.906;7.248;2022-10-15T05:59:23;17.05;;;8.57;;
43670;SDS011;29267;50.906;7.248;2022-10-15T06:01:48;18.55;;;7.93;;
43670;SDS011;29267;50.906;7.248;2022-10-15T06:04:15;16.45;;;8.60;;
43670;SDS011;29267;50.906;7.248;2022-10-15T06:06:41;13.18;;;8.63;;
43670;SDS011;29267;50.906;7.248;2022-10-15T06:09:06;15.48;;;7.57;;
43670;SDS011;29267;50.906;7.248;2022-10-15T06:11:32;14.00;;;8.10;;
43670;SDS011;29267;50.906;7.248;2022-10-15T06:13:57;13.80;;;7.68;;
43670;SDS011;29267;50.906;7.248;2022-10-15T06:16:23;15.75;;;8.23;;
43670;SDS011;29267;50.906;7.248;2022-10-15T06:18:49;12.77;;;8.02;;
43670;SDS011;29267;50.906;7.248;2022-10-15T06:21:16;11.43;;;7.88;;
43670;SDS011;29267;50.906;7.248;2022-10-15T06:23:41;12.00;;;7.05;;
43670;SDS011;29267;50.906;7.248;2022-10-15T06:26:07;14.15;;;7.63;;
43670;SDS011;29267;50.906;7.248;2022-10-15T06:28:34;11.55;;;7.18;;
43670;SDS011;29267;50.906;7.248;2022-10-15T06:31:00;10.30;;;7.22;;
43670;SDS011;29267;50.906;7.248;2022-10-15T06:33:26;12.02;;;6.45;;
43670;SDS011;29267;50.906;7.248;2022-10-15T06:35:53;10.55;;;6.25;;
43670;SDS011;29267;50.906;7.248;2022-10-15T06:38:19;11.65;;;6.82;;
43670;SDS011;29267;50.906;7.248;2022-10-15T06:40:44;10.85;;;6.38;;
43670;SDS011;29267;50.906;7.248;2022-10-15T06:43:10;12.75;;;5.80;;
43670;SDS011;29267;50.906;7.248;2022-10-15T06:45:36;10.50;;;6.18;;
43670;SDS011;29267;50.906;7.248;2022-10-15T06:48:03;9.75;;;6.57;;
43670;SDS011;29267;50.906;7.248;2022-10-15T06:50:30;8.57;;;6.07;;
43670;SDS011;29267;50.906;7.248;2022-10-15T06:52:57;8.40;;;6.25;;
43670;SDS011;29267;50.906;7.248;2022-10-15T06:55:22;9.68;;;5.75;;
43670;SDS011;29267;50.906;7.248;2022-10-15T06:57:48;9.52;;;5.97;;
43670;SDS011;29267;50.906;7.248;2022-10-15T07:00:14;11.68;;;6.70;;
43670;SDS011;29267;50.906;7.248;2022-10-15T07:02:41;9.75;;;5.93;;
43670;SDS011;29267;50.906;7.248;2022-10-15T07:05:07;10.02;;;5.93;;
43670;SDS011;29267;50.906;7.248;2022-10-15T07:07:33;14.88;;;6.10;;
43670;SDS011;29267;50.906;7.248;2022-10-15T07:09:59;9.00;;;5.50;;
43670;SDS011;29267;50.906;7.248;2022-10-15T07:12:24;7.88;;;4.93;;
43670;SDS011;29267;50.906;7.248;2022-10-15T07:14:50;6.85;;;5.05;;
43670;SDS011;29267;50.906;7.248;2022-10-15T07:17:16;6.65;;;4.63;;
43670;SDS011;29267;50.906;7.248;2022-10-15T07:19:41;7.32;;;5.10;;
43670;SDS011;29267;50.906;7.248;2022-10-15T07:22:08;7.72;;;4.82;;
43670;SDS011;29267;50.906;7.248;2022-10-15T07:24:34;7.32;;;4.93;;
43670;SDS011;29267;50.906;7.248;2022-10-15T07:27:00;6.38;;;4.90;;
43670;SDS011;29267;50.906;7.248;2022-10-15T07:29:25;8.77;;;4.35;;
43670;SDS011;29267;50.906;7.248;2022-10-15T07:31:51;6.65;;;4.78;;
43670;SDS011;29267;50.906;7.248;2022-10-15T07:34:17;7.72;;;4.45;;
43670;SDS011;29267;50.906;7.248;2022-10-15T07:36:42;7.15;;;4.28;;
43670;SDS011;29267;50.906;7.248;2022-10-15T07:39:08;6.22;;;4.35;;
43670;SDS011;29267;50.906;7.248;2022-10-15T07:41:34;6.25;;;3.60;;
43670;SDS011;29267;50.906;7.248;2022-10-15T07:43:59;5.85;;;4.10;;
43670;SDS011;29267;50.906;7.248;2022-10-15T07:46:25;7.53;;;3.83;;
43670;SDS011;29267;50.906;7.248;2022-10-15T07:48:51;5.15;;;3.45;;
43670;SDS011;29267;50.906;7.248;2022-10-15T07:51:16;9.75;;;3.92;;
43670;SDS011;29267;50.906;7.248;2022-10-15T07:53:42;5.40;;;3.97;;
43670;SDS011;29267;50.906;7.248;2022-10-15T07:56:11;5.30;;;3.95;;
43670;SDS011;29267;50.906;7.248;2022-10-15T07:58:38;4.93;;;3.72;;
43670;SDS011;29267;50.906;7.248;2022-10-15T08:01:04;6.03;;;4.22;;
43670;SDS011;29267;50.906;7.248;2022-10-15T08:03:31;5.85;;;3.30;;
43670;SDS011;29267;50.906;7.248;2022-10-15T08:06:03;4.30;;;2.92;;
43670;SDS011;29267;50.906;7.248;2022-10-15T08:08:30;7.70;;;2.38;;
43670;SDS011;29267;50.906;7.248;2022-10-15T08:10:57;4.55;;;2.83;;
43670;SDS011;29267;50.906;7.248;2022-10-15T08:13:23;4.20;;;2.20;;
43670;SDS011;29267;50.906;7.248;2022-10-15T08:15:49;4.28;;;2.40;;
43670;SDS011;29267;50.906;7.248;2022-10-15T08:18:14;4.85;;;1.55;;
43670;SDS011;29267;50.906;7.248;2022-10-15T08:20:40;4.18;;;2.17;;
43670;SDS011;29267;50.906;7.248;2022-10-15T08:23:10;2.55;;;2.00;;
43670;SDS011;29267;50.906;7.248;2022-10-15T08:25:39;1.88;;;1.50;;
43670;SDS011;29267;50.906;7.248;2022-10-15T08:28:05;3.38;;;1.63;;
43670;SDS011;29267;50.906;7.248;2022-10-15T08:30:31;2.92;;;1.63;;
43670;SDS011;29267;50.906;7.248;2022-10-15T08:32:57;2.38;;;1.38;;
43670;SDS011;29267;50.906;7.248;2022-10-15T08:35:22;1.88;;;1.30;;
43670;SDS011;29267;50.906;7.248;2022-10-15T08:37:48;6.38;;;1.92;;
43670;SDS011;29267;50.906;7.248;2022-10-15T08:40:17;2.10;;;1.42;;
43670;SDS011;29267;50.906;7.248;2022-10-15T08:42:44;3.92;;;1.38;;
43670;SDS011;29267;50.906;7.248;2022-10-15T08:47:43;1.40;;;0.93;;
43670;SDS011;29267;50.906;7.248;2022-10-15T08:50:16;1.55;;;0.90;;
43670;SDS011;29267;50.906;7.248;2022-10-15T08:53:02;1.83;;;0.88;;
43670;SDS011;29267;50.906;7.248;2022-10-15T08:55:28;1.85;;;0.80;;
43670;SDS011;29267;50.906;7.248;2022-10-15T08:58:01;1.60;;;1.00;;
43670;SDS011;29267;50.906;7.248;2022-10-15T09:00:40;1.20;;;0.80;;
43670;SDS011;29267;50.906;7.248;2022-10-15T09:13:55;0.95;;;0.80;;
43670;SDS011;29267;50.906;7.248;2022-10-15T09:16:29;1.60;;;1.13;;
43670;SDS011;29267;50.906;7.248;2022-10-15T09:18:59;1.02;;;0.70;;
43670;SDS011;29267;50.906;7.248;2022-10-15T09:21:29;2.58;;;1.02;;
43670;SDS011;29267;50.906;7.248;2022-10-15T09:24:00;1.40;;;0.90;;
43670;SDS011;29267;50.906;7.248;2022-10-15T09:26:28;2.05;;;0.70;;
43670;SDS011;29267;50.906;7.248;2022-10-15T09:31:46;2.00;;;0.80;;
43670;SDS011;29267;50.906;7.248;2022-10-15T09:34:51;1.25;;;0.90;;
43670;SDS011;29267;50.906;7.248;2022-10-15T09:42:40;1.23;;;0.85;;
43670;SDS011;29267;50.906;7.248;2022-10-15T09:45:09;0.90;;;0.70;;
43670;SDS011;29267;50.906;7.248;2022-10-15T09:47:38;1.33;;;0.95;;
43670;SDS011;29267;50.906;7.248;2022-10-15T09:50:06;0.88;;;0.80;;
43670;SDS011;29267;50.906;7.248;2022-10-15T09:55:44;0.75;;;0.60;;
43670;SDS011;29267;50.906;7.248;2022-10-15T09:58:15;0.55;;;0.45;;
43670;SDS011;29267;50.906;7.248;2022-10-15T10:03:17;0.40;;;0.40;;
43670;SDS011;29267;50.906;7.248;2022-10-15T10:05:43;1.35;;;0.52;;
43670;SDS011;29267;50.906;7.248;2022-10-15T10:08:20;0.77;;;0.60;;
43670;SDS011;29267;50.906;7.248;2022-10-15T10:10:58;1.20;;;0.90;;
43670;SDS011;29267;50.906;7.248;2022-10-15T10:16:13;1.05;;;0.73;;
43670;SDS011;29267;50.906;7.248;2022-10-15T10:18:40;0.70;;;0.50;;
43670;SDS011;29267;50.906;7.248;2022-10-15T10:21:21;7.47;;;1.30;;
43670;SDS011;29267;50.906;7.248;2022-10-15T10:23:50;0.93;;;0.70;;
43670;SDS011;29267;50.906;7.248;2022-10-15T10:26:16;4.35;;;0.60;;
43670;SDS011;29267;50.906;7.248;2022-10-15T10:28:47;1.20;;;0.68;;
43670;SDS011;29267;50.906;7.248;2022-10-15T10:31:16;0.95;;;0.70;;
43670;SDS011;29267;50.906;7.248;2022-10-15T10:33:46;0.90;;;0.57;;
43670;SDS011;29267;50.906;7.248;2022-10-15T10:36:23;0.57;;;0.57;;
43670;SDS011;29267;50.906;7.248;2022-10-15T10:39:32;0.68;;;0.50;;
43670;SDS011;29267;50.906;7.248;2022-10-15T10:41:56;1.10;;;0.47;;
43670;SDS011;29267;50.906;7.248;2022-10-15T10:44:32;0.52;;;0.52;;
43670;SDS011;29267;50.906;7.248;2022-10-15T10:47:21;0.70;;;0.60;;
43670;SDS011;29267;50.906;7.248;2022-10-15T10:49:47;0.95;;;0.68;;
43670;SDS011;29267;50.906;7.248;2022-10-15T10:55:31;1.02;;;0.70;;
43670;SDS011;29267;50.906;7.248;2022-10-15T10:57:48;2.70;;;0.50;;
43670;SDS011;29267;50.906;7.248;2022-10-15T11:00:21;1.20;;;0.80;;
43670;SDS011;29267;50.906;7.248;2022-10-15T11:03:00;0.93;;;0.70;;
43670;SDS011;29267;50.906;7.248;2022-10-15T11:05:27;0.60;;;0.52;;
43670;SDS011;29267;50.906;7.248;2022-10-15T11:08:00;3.42;;;0.77;;
43670;SDS011;29267;50.906;7.248;2022-10-15T11:14:02;0.40;;;0.40;;
43670;SDS011;29267;50.906;7.248;2022-10-15T11:17:11;0.63;;;0.40;;
43670;SDS011;29267;50.906;7.248;2022-10-15T11:19:50;2.75;;;0.52;;
43670;SDS011;29267;50.906;7.248;2022-10-15T11:30:34;3.67;;;0.93;;
43670;SDS011;29267;50.906;7.248;2022-10-15T11:36:38;3.15;;;1.35;;
43670;SDS011;29267;50.906;7.248;2022-10-15T11:42:12;0.95;;;0.70;;
43670;SDS011;29267;50.906;7.248;2022-10-15T11:45:05;0.93;;;0.80;;
43670;SDS011;29267;50.906;7.248;2022-10-15T11:47:49;0.40;;;0.40;;
43670;SDS011;29267;50.906;7.248;2022-10-15T11:55:44;1.13;;;0.68;;
43670;SDS011;29267;50.906;7.248;2022-10-15T11:58:29;1.77;;;0.70;;
43670;SDS011;29267;50.906;7.248;2022-10-15T12:01:04;2.97;;;0.80;;
43670;SDS011;29267;50.906;7.248;2022-10-15T12:03:36;5.00;;;1.27;;
43670;SDS011;29267;50.906;7.248;2022-10-15T12:06:15;1.88;;;1.00;;
43670;SDS011;29267;50.906;7.248;2022-10-15T12:08:44;2.60;;;1.10;;
43670;SDS011;29267;50.906;7.248;2022-10-15T12:14:24;0.73;;;0.55;;
43670;SDS011;29267;50.906;7.248;2022-10-15T12:17:08;0.80;;;0.43;;
43670;SDS011;29267;50.906;7.248;2022-10-15T12:19:55;0.88;;;0.75;;
43670;SDS011;29267;50.906;7.248;2022-10-15T12:22:34;2.95;;;0.60;;
43670;SDS011;29267;50.906;7.248;2022-10-15T12:25:05;0.80;;;0.60;;
43670;SDS011;29267;50.906;7.248;2022-10-15T12:30:34;0.82;;;0.45;;
43670;SDS011;29267;50.906;7.248;2022-10-15T12:33:02;0.35;;;0.30;;
43670;SDS011;29267;50.906;7.248;2022-10-15T12:35:48;0.68;;;0.68;;
43670;SDS011;29267;50.906;7.248;2022-10-15T12:41:02;0.40;;;0.40;;
43670;SDS011;29267;50.906;7.248;2022-10-15T12:43:47;3.50;;;0.40;;
43670;SDS011;29267;50.906;7.248;2022-10-15T12:46:34;1.02;;;0.40;;
43670;SDS011;29267;50.906;7.248;2022-10-15T12:49:10;0.38;;;0.30;;
43670;SDS011;29267;50.906;7.248;2022-10-15T12:51:51;0.70;;;0.50;;
43670;SDS011;29267;50.906;7.248;2022-10-15T12:57:49;0.22;;;0.20;;
43670;SDS011;29267;50.906;7.248;2022-10-15T13:00:27;0.30;;;0.30;;
43670;SDS011;29267;50.906;7.248;2022-10-15T13:03:58;0.25;;;0.25;;
43670;SDS011;29267;50.906;7.248;2022-10-15T13:06:43;1.10;;;0.32;;
43670;SDS011;29267;50.906;7.248;2022-10-15T13:16:51;0.85;;;0.30;;
43670;SDS011;29267;50.906;7.248;2022-10-15T13:19:19;0.22;;;0.22;;
43670;SDS011;29267;50.906;7.248;2022-10-15T13:21:54;0.20;;;0.20;;
43670;SDS011;29267;50.906;7.248;2022-10-15T13:26:54;1.98;;;0.70;;
43670;SDS011;29267;50.906;7.248;2022-10-15T13:29:24;2.80;;;1.20;;
43670;SDS011;29267;50.906;7.248;2022-10-15T13:31:52;3.97;;;2.63;;
43670;SDS011;29267;50.906;7.248;2022-10-15T13:36:45;2.67;;;1.25;;
43670;SDS011;29267;50.906;7.248;2022-10-15T13:44:37;1.95;;;1.40;;
43670;SDS011;29267;50.906;7.248;2022-10-15T13:47:02;2.10;;;1.45;;
43670;SDS011;29267;50.906;7.248;2022-10-15T13:49:47;2.00;;;1.80;;
43670;SDS011;29267;50.906;7.248;2022-10-15T13:52:12;9.27;;;5.53;;
43670;SDS011;29267;50.906;7.248;2022-10-15T13:54:38;11.10;;;7.03;;
43670;SDS011;29267;50.906;7.248;2022-10-15T13:57:03;34.85;;;19.58;;
43670;SDS011;29267;50.906;7.248;2022-10-15T13:59:29;16.08;;;9.82;;
43670;SDS011;29267;50.906;7.248;2022-10-15T14:01:57;3.30;;;2.50;;
43670;SDS011;29267;50.906;7.248;2022-10-15T14:04:28;4.25;;;2.72;;
43670;SDS011;29267;50.906;7.248;2022-10-15T14:07:03;10.77;;;7.10;;
43670;SDS011;29267;50.906;7.248;2022-10-15T14:09:44;5.90;;;4.32;;
43670;SDS011;29267;50.906;7.248;2022-10-15T14:12:11;8.48;;;3.30;;
43670;SDS011;29267;50.906;7.248;2022-10-15T14:14:38;4.80;;;3.42;;
43670;SDS011;29267;50.906;7.248;2022-10-15T14:17:21;3.53;;;2.72;;
43670;SDS011;29267;50.906;7.248;2022-10-15T14:19:52;5.78;;;4.10;;
43670;SDS011;29267;50.906;7.248;2022-10-15T14:22:21;5.45;;;4.05;;
43670;SDS011;29267;50.906;7.248;2022-10-15T14:24:51;3.97;;;3.17;;
43670;SDS011;29267;50.906;7.248;2022-10-15T14:27:22;3.17;;;2.05;;
43670;SDS011;29267;50.906;7.248;2022-10-15T14:29:53;4.68;;;2.90;;
43670;SDS011;29267;50.906;7.248;2022-10-15T14:32:24;13.52;;;7.93;;
43670;SDS011;29267;50.906;7.248;2022-10-15T14:34:53;11.82;;;6.60;;
43670;SDS011;29267;50.906;7.248;2022-10-15T14:42:32;20.85;;;10.13;;
43670;SDS011;29267;50.906;7.248;2022-10-15T14:45:10;8.40;;;5.10;;
43670;SDS011;29267;50.906;7.248;2022-10-15T14:47:49;4.50;;;2.83;;
43670;SDS011;29267;50.906;7.248;2022-10-15T14:50:17;5.90;;;3.90;;
43670;SDS011;29267;50.906;7.248;2022-10-15T14:52:44;5.45;;;3.55;;
43670;SDS011;29267;50.906;7.248;2022-10-15T14:55:13;5.63;;;2.00;;
43670;SDS011;29267;50.906;7.248;2022-10-15T14:57:58;4.78;;;3.20;;
43670;SDS011;29267;50.906;7.248;2022-10-15T15:02:54;1.25;;;0.85;;
43670;SDS011;29267;50.906;7.248;2022-10-15T15:05:22;10.32;;;6.07;;
43670;SDS011;29267;50.906;7.248;2022-10-15T15:07:52;7.60;;;4.05;;
43670;SDS011;29267;50.906;7.248;2022-10-15T15:10:21;1.52;;;0.90;;
43670;SDS011;29267;50.906;7.248;2022-10-15T15:12:49;0.77;;;0.77;;
43670;SDS011;29267;50.906;7.248;2022-10-15T15:15:19;1.02;;;0.73;;
43670;SDS011;29267;50.906;7.248;2022-10-15T15:17:47;1.70;;;1.33;;
43670;SDS011;29267;50.906;7.248;2022-10-15T15:20:13;2.33;;;1.10;;
43670;SDS011;29267;50.906;7.248;2022-10-15T15:22:40;5.78;;;1.20;;
43670;SDS011;29267;50.906;7.248;2022-10-15T15:25:13;1.60;;;0.90;;
43670;SDS011;29267;50.906;7.248;2022-10-15T15:27:40;1.77;;;1.08;;
43670;SDS011;29267;50.906;7.248;2022-10-15T15:30:06;1.10;;;0.80;;
43670;SDS011;29267;50.906;7.248;2022-10-15T15:32:37;1.33;;;1.10;;
43670;SDS011;29267;50.906;7.248;2022-10-15T15:35:15;1.38;;;1.02;;
43670;SDS011;29267;50.906;7.248;2022-10-15T15:37:55;4.60;;;2.15;;
43670;SDS011;29267;50.906;7.248;2022-10-15T15:40:21;0.50;;;0.50;;
43670;SDS011;29267;50.906;7.248;2022-10-15T15:42:46;2.03;;;1.52;;
43670;SDS011;29267;50.906;7.248;2022-10-15T15:45:16;0.93;;;0.82;;
43670;SDS011;29267;50.906;7.248;2022-10-15T15:47:46;2.47;;;1.60;;
43670;SDS011;29267;50.906;7.248;2022-10-15T15:50:13;2.55;;;1.77;;
43670;SDS011;29267;50.906;7.248;2022-10-15T15:52:39;6.15;;;3.83;;
43670;SDS011;29267;50.906;7.248;2022-10-15T15:55:05;6.68;;;1.70;;
43670;SDS011;29267;50.906;7.248;2022-10-15T15:57:31;0.82;;;0.70;;
43670;SDS011;29267;50.906;7.248;2022-10-15T15:59:57;1.30;;;0.70;;
43670;SDS011;29267;50.906;7.248;2022-10-15T16:02:22;2.65;;;1.38;;
43670;SDS011;29267;50.906;7.248;2022-10-15T16:04:48;2.40;;;1.70;;
43670;SDS011;29267;50.906;7.248;2022-10-15T16:07:13;2.28;;;2.08;;
43670;SDS011;29267;50.906;7.248;2022-10-15T16:09:39;4.72;;;2.20;;
43670;SDS011;29267;50.906;7.248;2022-10-15T16:12:05;2.15;;;1.73;;
43670;SDS011;29267;50.906;7.248;2022-10-15T16:14:31;1.20;;;1.10;;
43670;SDS011;29267;50.906;7.248;2022-10-15T16:16:56;1.15;;;1.05;;
43670;SDS011;29267;50.906;7.248;2022-10-15T16:19:22;2.42;;;1.20;;
43670;SDS011;29267;50.906;7.248;2022-10-15T16:21:48;2.42;;;0.95;;
43670;SDS011;29267;50.906;7.248;2022-10-15T16:24:13;1.75;;;1.45;;
43670;SDS011;29267;50.906;7.248;2022-10-15T16:26:39;2.20;;;1.88;;
43670;SDS011;29267;50.906;7.248;2022-10-15T16:29:04;2.70;;;2.17;;
43670;SDS011;29267;50.906;7.248;2022-10-15T16:31:30;3.55;;;1.42;;
43670;SDS011;29267;50.906;7.248;2022-10-15T16:34:00;4.07;;;2.67;;
43670;SDS011;29267;50.906;7.248;2022-10-15T16:36:27;4.03;;;2.25;;
43670;SDS011;29267;50.906;7.248;2022-10-15T16:38:53;3.20;;;2.33;;
43670;SDS011;29267;50.906;7.248;2022-10-15T16:41:18;34.28;;;14.85;;
43670;SDS011;29267;50.906;7.248;2022-10-15T16:43:44;44.05;;;17.75;;
43670;SDS011;29267;50.906;7.248;2022-10-15T16:46:14;12.02;;;6.22;;
43670;SDS011;29267;50.906;7.248;2022-10-15T16:48:40;17.70;;;11.07;;
43670;SDS011;29267;50.906;7.248;2022-10-15T16:51:07;19.58;;;11.23;;